sensor_id;sensor_type;location;lat;lon;timestamp;pressure;altitude;pressure_sealevel;temperature;humidity
61119;BME280;51448;51.660;5.824;2023-02-20T00:01:38;102464.50;;;4.87;100.00
61119;BME280;51448;51.660;5.824;2023-02-20T00:04:12;102461.06;;;4.88;100.00
61119;BME280;51448;51.660;5.824;2023-02-20T00:06:39;102464.53;;;4.89;100.00
61119;BME280;51448;51.660;5.824;2023-02-20T00:09:09;102467.19;;;4.90;100.00
61119;BME280;51448;51.660;5.824;2023-02-20T00:11:37;102467.19;;;4.92;100.00
61119;BME280;51448;51.660;5.824;2023-02-20T00:14:06;102469.88;;;4.95;100.00
61119;BME280;51448;51.660;5.824;2023-02-20T00:16:34;102476.84;;;4.96;100.00
61119;BME280;51448;51.660;5.824;2023-02-20T00:19:01;102469.94;;;4.98;100.00
61119;BME280;51448;51.660;5.824;2023-02-20T00:21:29;102465.63;;;5.00;100.00
61119;BME280;51448;51.660;5.824;2023-02-20T00:23:56;102459.59;;;5.01;100.00
61119;BME280;51448;51.660;5.824;2023-02-20T00:26:24;102444.84;;;5.03;100.00
61119;BME280;51448;51.660;5.824;2023-02-20T00:28:52;102444.00;;;5.04;100.00
61119;BME280;51448;51.660;5.824;2023-02-20T00:31:19;102441.47;;;5.07;100.00
61119;BME280;51448;51.660;5.824;2023-02-20T00:33:50;102435.38;;;5.08;100.00
61119;BME280;51448;51.660;5.824;2023-02-20T00:36:18;102436.28;;;5.09;100.00
61119;BME280;51448;51.660;5.824;2023-02-20T00:38:46;102438.91;;;5.10;100.00
61119;BME280;51448;51.660;5.824;2023-02-20T00:41:14;102430.28;;;5.13;100.00
61119;BME280;51448;51.660;5.824;2023-02-20T00:43:44;102425.06;;;5.14;100.00
61119;BME280;51448;51.660;5.824;2023-02-20T00:46:13;102421.63;;;5.15;100.00
61119;BME280;51448;51.660;5.824;2023-02-20T00:48:42;102407.72;;;5.16;100.00
61119;BME280;51448;51.660;5.824;2023-02-20T00:51:28;102399.03;;;5.16;100.00
61119;BME280;51448;51.660;5.824;2023-02-20T00:53:58;102386.03;;;5.17;100.00
61119;BME280;51448;51.660;5.824;2023-02-20T00:56:26;102379.97;;;5.20;100.00
61119;BME280;51448;51.660;5.824;2023-02-20T00:58:56;102384.31;;;5.19;100.00
61119;BME280;51448;51.660;5.824;2023-02-20T01:01:25;102393.00;;;5.20;100.00
61119;BME280;51448;51.660;5.824;2023-02-20T01:03:53;102395.66;;;5.21;100.00
61119;BME280;51448;51.660;5.824;2023-02-20T01:06:21;102392.19;;;5.22;100.00
61119;BME280;51448;51.660;5.824;2023-02-20T01:08:50;102401.81;;;5.25;100.00
61119;BME280;51448;51.660;5.824;2023-02-20T01:11:21;102400.09;;;5.26;100.00
61119;BME280;51448;51.660;5.824;2023-02-20T01:13:49;102394.91;;;5.27;100.00
61119;BME280;51448;51.660;5.824;2023-02-20T01:16:16;102393.16;;;5.28;100.00
61119;BME280;51448;51.660;5.824;2023-02-20T01:18:48;102392.34;;;5.30;100.00
61119;BME280;51448;51.660;5.824;2023-02-20T01:21:17;102394.06;;;5.30;100.00
61119;BME280;51448;51.660;5.824;2023-02-20T01:23:45;102389.72;;;5.30;100.00
61119;BME280;51448;51.660;5.824;2023-02-20T01:26:13;102391.47;;;5.30;100.00
61119;BME280;51448;51.660;5.824;2023-02-20T01:28:46;102386.25;;;5.30;100.00
61119;BME280;51448;51.660;5.824;2023-02-20T01:31:15;102385.34;;;5.28;100.00
61119;BME280;51448;51.660;5.824;2023-02-20T01:33:43;102379.25;;;5.27;100.00
61119;BME280;51448;51.660;5.824;2023-02-20T01:36:11;102366.16;;;5.26;100.00
61119;BME280;51448;51.660;5.824;2023-02-20T01:38:40;102358.31;;;5.24;100.00
61119;BME280;51448;51.660;5.824;2023-02-20T01:41:10;102351.34;;;5.24;100.00
61119;BME280;51448;51.660;5.824;2023-02-20T01:43:38;102347.00;;;5.23;100.00
61119;BME280;51448;51.660;5.824;2023-02-20T01:49:04;102333.94;;;5.22;100.00
61119;BME280;51448;51.660;5.824;2023-02-20T01:51:40;102319.13;;;5.21;100.00
61119;BME280;51448;51.660;5.824;2023-02-20T01:54:13;102315.63;;;5.20;100.00
61119;BME280;51448;51.660;5.824;2023-02-20T01:56:46;102302.59;;;5.20;100.00
61119;BME280;51448;51.660;5.824;2023-02-20T01:59:15;102289.53;;;5.20;100.00
61119;BME280;51448;51.660;5.824;2023-02-20T02:01:44;102293.03;;;5.19;100.00
61119;BME280;51448;51.660;5.824;2023-02-20T02:04:13;102282.56;;;5.18;100.00
61119;BME280;51448;51.660;5.824;2023-02-20T02:06:46;102284.25;;;5.16;100.00
61119;BME280;51448;51.660;5.824;2023-02-20T02:09:37;102285.13;;;5.15;100.00
61119;BME280;51448;51.660;5.824;2023-02-20T02:12:22;102292.00;;;5.11;100.00
61119;BME280;51448;51.660;5.824;2023-02-20T02:14:50;102290.22;;;5.10;100.00
61119;BME280;51448;51.660;5.824;2023-02-20T02:43:34;102277.13;;;5.06;100.00
61119;BME280;51448;51.660;5.824;2023-02-20T02:46:28;102278.84;;;5.05;100.00
61119;BME280;51448;51.660;5.824;2023-02-20T02:49:13;102271.91;;;5.06;100.00
61119;BME280;51448;51.660;5.824;2023-02-20T02:51:49;102278.91;;;5.08;100.00
61119;BME280;51448;51.660;5.824;2023-02-20T02:54:24;102273.75;;;5.11;100.00
61119;BME280;51448;51.660;5.824;2023-02-20T02:57:18;102273.78;;;5.14;100.00
61119;BME280;51448;51.660;5.824;2023-02-20T02:59:48;102271.22;;;5.16;100.00
61119;BME280;51448;51.660;5.824;2023-02-20T03:02:24;102266.94;;;5.19;100.00
61119;BME280;51448;51.660;5.824;2023-02-20T03:04:58;102260.84;;;5.20;100.00
61119;BME280;51448;51.660;5.824;2023-02-20T03:07:30;102254.78;;;5.21;100.00
61119;BME280;51448;51.660;5.824;2023-02-20T03:10:10;102250.47;;;5.23;100.00
61119;BME280;51448;51.660;5.824;2023-02-20T03:12:48;102248.78;;;5.26;100.00
61119;BME280;51448;51.660;5.824;2023-02-20T03:15:27;102252.31;;;5.31;100.00
61119;BME280;51448;51.660;5.824;2023-02-20T03:20:56;102247.22;;;5.35;100.00
61119;BME280;51448;51.660;5.824;2023-02-20T03:23:32;102238.53;;;5.38;100.00
61119;BME280;51448;51.660;5.824;2023-02-20T03:26:09;102226.44;;;5.41;100.00
61119;BME280;51448;51.660;5.824;2023-02-20T03:28:52;102231.69;;;5.44;100.00
61119;BME280;51448;51.660;5.824;2023-02-20T03:31:29;102236.94;;;5.46;100.00
61119;BME280;51448;51.660;5.824;2023-02-20T03:34:09;102235.25;;;5.51;100.00
61119;BME280;51448;51.660;5.824;2023-02-20T03:37:06;102227.47;;;5.53;100.00
61119;BME280;51448;51.660;5.824;2023-02-20T03:40:01;102238.78;;;5.55;100.00
61119;BME280;51448;51.660;5.824;2023-02-20T03:43:00;102235.38;;;5.59;100.00
61119;BME280;51448;51.660;5.824;2023-02-20T03:46:02;102235.41;;;5.60;100.00
61119;BME280;51448;51.660;5.824;2023-02-20T03:48:57;102238.97;;;5.67;100.00
61119;BME280;51448;51.660;5.824;2023-02-20T03:51:30;102238.97;;;5.67;100.00
61119;BME280;51448;51.660;5.824;2023-02-20T03:54:04;102242.53;;;5.71;100.00
61119;BME280;51448;51.660;5.824;2023-02-20T03:56:37;102232.09;;;5.74;100.00
61119;BME280;51448;51.660;5.824;2023-02-20T03:59:16;102230.41;;;5.76;100.00
61119;BME280;51448;51.660;5.824;2023-02-20T04:01:49;102231.28;;;5.78;100.00
61119;BME280;51448;51.660;5.824;2023-02-20T04:04:35;102229.59;;;5.80;100.00
61119;BME280;51448;51.660;5.824;2023-02-20T04:07:16;102227.03;;;5.83;100.00
61119;BME280;51448;51.660;5.824;2023-02-20T04:09:50;102226.16;;;5.84;100.00
61119;BME280;51448;51.660;5.824;2023-02-20T04:12:29;102229.69;;;5.88;100.00
61119;BME280;51448;51.660;5.824;2023-02-20T04:15:02;102224.50;;;5.89;100.00
61119;BME280;51448;51.660;5.824;2023-02-20T04:17:40;102228.91;;;5.93;100.00
61119;BME280;51448;51.660;5.824;2023-02-20T04:20:15;102223.69;;;5.93;100.00
61119;BME280;51448;51.660;5.824;2023-02-20T04:22:53;102230.75;;;5.97;100.00
61119;BME280;51448;51.660;5.824;2023-02-20T04:25:46;102235.16;;;6.01;100.00
61119;BME280;51448;51.660;5.824;2023-02-20T04:28:20;102237.78;;;6.03;100.00
61119;BME280;51448;51.660;5.824;2023-02-20T04:30:55;102224.72;;;6.04;100.00
61119;BME280;51448;51.660;5.824;2023-02-20T04:33:24;102221.28;;;6.06;100.00
61119;BME280;51448;51.660;5.824;2023-02-20T04:35:58;102222.19;;;6.09;100.00
61119;BME280;51448;51.660;5.824;2023-02-20T04:38:25;102224.81;;;6.11;100.00
61119;BME280;51448;51.660;5.824;2023-02-20T04:40:54;102235.31;;;6.14;100.00
61119;BME280;51448;51.660;5.824;2023-02-20T04:43:22;102232.69;;;6.14;100.00
61119;BME280;51448;51.660;5.824;2023-02-20T04:45:51;102231.00;;;6.17;100.00
61119;BME280;51448;51.660;5.824;2023-02-20T04:48:19;102224.06;;;6.19;100.00
61119;BME280;51448;51.660;5.824;2023-02-20T04:50:47;102228.44;;;6.22;100.00
61119;BME280;51448;51.660;5.824;2023-02-20T04:53:16;102244.97;;;6.22;100.00
61119;BME280;51448;51.660;5.824;2023-02-20T04:55:44;102247.63;;;6.24;100.00
61119;BME280;51448;51.660;5.824;2023-02-20T04:58:15;102236.28;;;6.25;100.00
61119;BME280;51448;51.660;5.824;2023-02-20T05:00:51;102234.59;;;6.27;100.00
61119;BME280;51448;51.660;5.824;2023-02-20T05:03:19;102234.59;;;6.29;100.00
61119;BME280;51448;51.660;5.824;2023-02-20T05:05:47;102229.41;;;6.30;100.00
61119;BME280;51448;51.660;5.824;2023-02-20T05:08:14;102230.31;;;6.32;100.00
61119;BME280;51448;51.660;5.824;2023-02-20T05:10:42;102228.56;;;6.33;100.00
61119;BME280;51448;51.660;5.824;2023-02-20T05:13:10;102235.56;;;6.35;100.00
61119;BME280;51448;51.660;5.824;2023-02-20T05:15:37;102226.88;;;6.36;100.00
61119;BME280;51448;51.660;5.824;2023-02-20T05:18:05;102232.13;;;6.38;100.00
61119;BME280;51448;51.660;5.824;2023-02-20T05:20:32;102226.88;;;6.39;100.00
61119;BME280;51448;51.660;5.824;2023-02-20T05:23:18;102225.16;;;6.38;100.00
61119;BME280;51448;51.660;5.824;2023-02-20T05:25:46;102226.91;;;6.41;100.00
61119;BME280;51448;51.660;5.824;2023-02-20T05:28:14;102223.44;;;6.43;100.00
61119;BME280;51448;51.660;5.824;2023-02-20T05:30:42;102214.75;;;6.44;100.00
61119;BME280;51448;51.660;5.824;2023-02-20T05:33:10;102213.88;;;6.45;100.00
61119;BME280;51448;51.660;5.824;2023-02-20T05:35:38;102216.50;;;6.45;100.00
61119;BME280;51448;51.660;5.824;2023-02-20T05:38:06;102223.50;;;6.47;100.00
61119;BME280;51448;51.660;5.824;2023-02-20T05:40:34;102225.25;;;6.48;100.00
61119;BME280;51448;51.660;5.824;2023-02-20T05:43:01;102218.28;;;6.50;100.00
61119;BME280;51448;51.660;5.824;2023-02-20T05:45:29;102228.78;;;6.51;100.00
61119;BME280;51448;51.660;5.824;2023-02-20T05:47:57;102224.41;;;6.52;100.00
61119;BME280;51448;51.660;5.824;2023-02-20T05:50:24;102219.22;;;6.53;100.00
61119;BME280;51448;51.660;5.824;2023-02-20T05:52:52;102226.19;;;6.56;100.00
61119;BME280;51448;51.660;5.824;2023-02-20T05:55:20;102225.34;;;6.57;100.00
61119;BME280;51448;51.660;5.824;2023-02-20T05:57:47;102227.09;;;6.58;100.00
61119;BME280;51448;51.660;5.824;2023-02-20T06:00:15;102226.28;;;6.60;100.00
61119;BME280;51448;51.660;5.824;2023-02-20T06:02:43;102225.41;;;6.61;100.00
61119;BME280;51448;51.660;5.824;2023-02-20T06:05:11;102221.06;;;6.63;100.00
61119;BME280;51448;51.660;5.824;2023-02-20T06:07:39;102226.28;;;6.63;100.00
61119;BME280;51448;51.660;5.824;2023-02-20T06:10:09;102217.59;;;6.64;100.00
61119;BME280;51448;51.660;5.824;2023-02-20T06:12:37;102219.38;;;6.69;100.00
61119;BME280;51448;51.660;5.824;2023-02-20T06:15:04;102208.06;;;6.70;100.00
61119;BME280;51448;51.660;5.824;2023-02-20T06:17:32;102215.03;;;6.71;100.00
61119;BME280;51448;51.660;5.824;2023-02-20T06:20:00;102212.44;;;6.71;100.00
61119;BME280;51448;51.660;5.824;2023-02-20T06:22:27;102213.31;;;6.71;100.00
61119;BME280;51448;51.660;5.824;2023-02-20T06:24:55;102219.44;;;6.73;100.00
61119;BME280;51448;51.660;5.824;2023-02-20T06:27:23;102215.09;;;6.75;100.00
61119;BME280;51448;51.660;5.824;2023-02-20T06:29:50;102214.22;;;6.76;100.00
61119;BME280;51448;51.660;5.824;2023-02-20T06:32:18;102215.97;;;6.77;100.00
61119;BME280;51448;51.660;5.824;2023-02-20T06:34:46;102210.78;;;6.79;100.00
61119;BME280;51448;51.660;5.824;2023-02-20T06:37:13;102202.91;;;6.80;100.00
61119;BME280;51448;51.660;5.824;2023-02-20T06:39:41;102209.06;;;6.81;100.00
61119;BME280;51448;51.660;5.824;2023-02-20T06:42:11;102215.16;;;6.83;100.00
61119;BME280;51448;51.660;5.824;2023-02-20T06:44:39;102219.53;;;6.84;100.00
61119;BME280;51448;51.660;5.824;2023-02-20T06:51:40;102218.69;;;6.85;100.00
61119;BME280;51448;51.660;5.824;2023-02-20T06:54:54;102211.69;;;6.84;100.00
61119;BME280;51448;51.660;5.824;2023-02-20T06:58:24;102213.44;;;6.87;100.00
61119;BME280;51448;51.660;5.824;2023-02-20T07:00:52;102224.78;;;6.87;100.00
61119;BME280;51448;51.660;5.824;2023-02-20T07:03:20;102220.44;;;6.91;100.00
61119;BME280;51448;51.660;5.824;2023-02-20T07:05:47;102216.13;;;6.94;100.00
61119;BME280;51448;51.660;5.824;2023-02-20T07:08:15;102226.63;;;6.96;100.00
61119;BME280;51448;51.660;5.824;2023-02-20T07:10:42;102224.00;;;6.96;100.00
61119;BME280;51448;51.660;5.824;2023-02-20T07:13:10;102228.41;;;7.00;100.00
61119;BME280;51448;51.660;5.824;2023-02-20T07:15:38;102229.25;;;7.00;100.00
61119;BME280;51448;51.660;5.824;2023-02-20T07:18:05;102231.91;;;7.02;100.00
61119;BME280;51448;51.660;5.824;2023-02-20T07:20:33;102222.31;;;7.04;100.00
61119;BME280;51448;51.660;5.824;2023-02-20T07:23:00;102223.22;;;7.06;100.00
61119;BME280;51448;51.660;5.824;2023-02-20T07:25:30;102226.75;;;7.10;100.00
61119;BME280;51448;51.660;5.824;2023-02-20T07:27:57;102229.34;;;7.11;100.00
61119;BME280;51448;51.660;5.824;2023-02-20T07:30:25;102216.34;;;7.16;100.00
61119;BME280;51448;51.660;5.824;2023-02-20T07:32:53;102206.72;;;7.16;100.00
61119;BME280;51448;51.660;5.824;2023-02-20T07:35:20;102232.03;;;7.19;100.00
61119;BME280;51448;51.660;5.824;2023-02-20T07:37:49;102217.22;;;7.19;100.00
61119;BME280;51448;51.660;5.824;2023-02-20T07:40:17;102221.59;;;7.20;100.00
61119;BME280;51448;51.660;5.824;2023-02-20T07:42:44;102219.88;;;7.22;100.00
61119;BME280;51448;51.660;5.824;2023-02-20T07:45:24;102232.97;;;7.24;100.00
61119;BME280;51448;51.660;5.824;2023-02-20T07:47:52;102219.88;;;7.25;100.00
61119;BME280;51448;51.660;5.824;2023-02-20T07:50:19;102221.66;;;7.27;100.00
61119;BME280;51448;51.660;5.824;2023-02-20T07:52:47;102211.19;;;7.28;100.00
61119;BME280;51448;51.660;5.824;2023-02-20T07:55:16;102222.56;;;7.30;100.00
61119;BME280;51448;51.660;5.824;2023-02-20T07:57:46;102218.19;;;7.31;100.00
61119;BME280;51448;51.660;5.824;2023-02-20T08:00:21;102226.03;;;7.34;100.00
61119;BME280;51448;51.660;5.824;2023-02-20T08:02:50;102225.19;;;7.33;100.00
61119;BME280;51448;51.660;5.824;2023-02-20T08:05:17;102224.31;;;7.36;100.00
61119;BME280;51448;51.660;5.824;2023-02-20T08:07:47;102225.22;;;7.36;100.00
61119;BME280;51448;51.660;5.824;2023-02-20T08:10:19;102214.72;;;7.38;100.00
61119;BME280;51448;51.660;5.824;2023-02-20T08:12:49;102208.66;;;7.39;100.00
61119;BME280;51448;51.660;5.824;2023-02-20T08:15:18;102204.31;;;7.41;100.00
61119;BME280;51448;51.660;5.824;2023-02-20T08:17:46;102203.41;;;7.42;100.00
61119;BME280;51448;51.660;5.824;2023-02-20T08:20:15;102210.44;;;7.46;100.00
61119;BME280;51448;51.660;5.824;2023-02-20T08:22:46;102209.56;;;7.47;100.00
61119;BME280;51448;51.660;5.824;2023-02-20T08:25:16;102209.59;;;7.52;100.00
61119;BME280;51448;51.660;5.824;2023-02-20T08:27:47;102212.22;;;7.53;100.00
61119;BME280;51448;51.660;5.824;2023-02-20T08:30:20;102209.63;;;7.56;100.00
61119;BME280;51448;51.660;5.824;2023-02-20T08:32:52;102212.25;;;7.58;100.00
61119;BME280;51448;51.660;5.824;2023-02-20T08:35:23;102211.41;;;7.59;100.00
61119;BME280;51448;51.660;5.824;2023-02-20T08:37:52;102207.94;;;7.61;100.00
61119;BME280;51448;51.660;5.824;2023-02-20T08:40:19;102217.53;;;7.64;100.00
61119;BME280;51448;51.660;5.824;2023-02-20T08:42:50;102214.03;;;7.66;100.00
61119;BME280;51448;51.660;5.824;2023-02-20T08:45:18;102214.94;;;7.67;100.00
61119;BME280;51448;51.660;5.824;2023-02-20T08:47:45;102218.44;;;7.68;100.00
61119;BME280;51448;51.660;5.824;2023-02-20T08:50:16;102217.56;;;7.69;100.00
61119;BME280;51448;51.660;5.824;2023-02-20T08:52:45;102227.19;;;7.70;100.00
61119;BME280;51448;51.660;5.824;2023-02-20T08:55:13;102221.06;;;7.71;100.00
61119;BME280;51448;51.660;5.824;2023-02-20T08:57:43;102214.97;;;7.75;100.00
61119;BME280;51448;51.660;5.824;2023-02-20T09:00:13;102213.22;;;7.77;100.00
61119;BME280;51448;51.660;5.824;2023-02-20T09:02:42;102215.03;;;7.79;100.00
61119;BME280;51448;51.660;5.824;2023-02-20T09:05:10;102221.13;;;7.83;100.00
61119;BME280;51448;51.660;5.824;2023-02-20T09:07:38;102216.78;;;7.82;100.00
61119;BME280;51448;51.660;5.824;2023-02-20T09:10:06;102216.78;;;7.83;100.00
61119;BME280;51448;51.660;5.824;2023-02-20T09:12:34;102221.16;;;7.86;100.00
61119;BME280;51448;51.660;5.824;2023-02-20T09:15:02;102215.94;;;7.88;100.00
61119;BME280;51448;51.660;5.824;2023-02-20T09:17:29;102217.69;;;7.90;100.00
61119;BME280;51448;51.660;5.824;2023-02-20T09:19:57;102221.22;;;7.94;100.00
61119;BME280;51448;51.660;5.824;2023-02-20T09:22:25;102210.72;;;7.95;100.00
61119;BME280;51448;51.660;5.824;2023-02-20T09:24:54;102216.84;;;7.97;100.00
61119;BME280;51448;51.660;5.824;2023-02-20T09:27:22;102200.25;;;7.98;100.00
61119;BME280;51448;51.660;5.824;2023-02-20T09:29:49;102203.78;;;8.02;100.00
61119;BME280;51448;51.660;5.824;2023-02-20T09:32:17;102198.53;;;8.03;100.00
61119;BME280;51448;51.660;5.824;2023-02-20T09:34:45;102192.44;;;8.04;100.00
61119;BME280;51448;51.660;5.824;2023-02-20T09:37:13;102197.69;;;8.11;100.00
61119;BME280;51448;51.660;5.824;2023-02-20T09:39:40;102200.31;;;8.11;100.00
61119;BME280;51448;51.660;5.824;2023-02-20T09:45:49;102209.91;;;8.12;100.00
61119;BME280;51448;51.660;5.824;2023-02-20T09:48:49;102216.94;;;8.14;100.00
61119;BME280;51448;51.660;5.824;2023-02-20T09:51:30;102206.44;;;8.13;100.00
61119;BME280;51448;51.660;5.824;2023-02-20T09:56:51;102194.22;;;8.16;100.00
61119;BME280;51448;51.660;5.824;2023-02-20T09:59:43;102191.59;;;8.18;100.00
61119;BME280;51448;51.660;5.824;2023-02-20T10:02:38;102189.84;;;8.20;100.00
61119;BME280;51448;51.660;5.824;2023-02-20T10:05:21;102184.63;;;8.23;100.00
61119;BME280;51448;51.660;5.824;2023-02-20T10:07:51;102190.75;;;8.23;100.00
61119;BME280;51448;51.660;5.824;2023-02-20T10:10:24;102190.75;;;8.28;100.00
61119;BME280;51448;51.660;5.824;2023-02-20T10:16:32;102196.88;;;8.32;100.00
61119;BME280;51448;51.660;5.824;2023-02-20T10:24:31;102184.66;;;8.29;100.00
61119;BME280;51448;51.660;5.824;2023-02-20T10:27:30;102194.28;;;8.29;100.00
61119;BME280;51448;51.660;5.824;2023-02-20T10:30:10;102196.00;;;8.28;100.00
61119;BME280;51448;51.660;5.824;2023-02-20T10:32:45;102197.78;;;8.31;100.00
61119;BME280;51448;51.660;5.824;2023-02-20T10:35:36;102191.66;;;8.35;100.00
61119;BME280;51448;51.660;5.824;2023-02-20T10:38:13;102190.78;;;8.34;100.00
61119;BME280;51448;51.660;5.824;2023-02-20T10:40:48;102189.94;;;8.37;100.00
61119;BME280;51448;51.660;5.824;2023-02-20T10:43:36;102198.66;;;8.37;100.00
61119;BME280;51448;51.660;5.824;2023-02-20T10:46:21;102196.91;;;8.39;100.00
61119;BME280;51448;51.660;5.824;2023-02-20T10:49:39;102203.91;;;8.40;100.00
61119;BME280;51448;51.660;5.824;2023-02-20T10:52:24;102208.28;;;8.40;100.00
61119;BME280;51448;51.660;5.824;2023-02-20T10:55:15;102201.28;;;8.40;100.00
61119;BME280;51448;51.660;5.824;2023-02-20T10:57:56;102204.81;;;8.41;100.00
61119;BME280;51448;51.660;5.824;2023-02-20T11:00:45;102200.47;;;8.43;100.00
61119;BME280;51448;51.660;5.824;2023-02-20T11:03:26;102182.97;;;8.43;100.00
61119;BME280;51448;51.660;5.824;2023-02-20T11:06:08;102197.84;;;8.43;100.00
61119;BME280;51448;51.660;5.824;2023-02-20T11:08:42;102187.34;;;8.44;100.00
61119;BME280;51448;51.660;5.824;2023-02-20T11:11:24;102196.97;;;8.49;100.00
61119;BME280;51448;51.660;5.824;2023-02-20T11:13:52;102206.59;;;8.45;100.00
61119;BME280;51448;51.660;5.824;2023-02-20T11:16:23;102194.34;;;8.47;100.00
61119;BME280;51448;51.660;5.824;2023-02-20T11:19:02;102196.09;;;8.46;100.00
61119;BME280;51448;51.660;5.824;2023-02-20T11:21:45;102199.56;;;8.49;100.00
61119;BME280;51448;51.660;5.824;2023-02-20T11:24:33;102196.09;;;8.53;100.00
61119;BME280;51448;51.660;5.824;2023-02-20T11:27:18;102181.25;;;8.52;100.00
61119;BME280;51448;51.660;5.824;2023-02-20T11:29:53;102175.13;;;8.53;100.00
61119;BME280;51448;51.660;5.824;2023-02-20T11:32:36;102196.13;;;8.51;100.00
61119;BME280;51448;51.660;5.824;2023-02-20T11:35:22;102202.22;;;8.52;100.00
61119;BME280;51448;51.660;5.824;2023-02-20T11:41:10;102165.50;;;8.52;100.00
61119;BME280;51448;51.660;5.824;2023-02-20T11:46:34;102172.50;;;8.53;100.00
61119;BME280;51448;51.660;5.824;2023-02-20T11:49:05;102183.88;;;8.53;100.00
61119;BME280;51448;51.660;5.824;2023-02-20T11:54:22;102162.00;;;8.53;100.00
61119;BME280;51448;51.660;5.824;2023-02-20T11:57:22;102159.41;;;8.57;100.00
61119;BME280;51448;51.660;5.824;2023-02-20T12:00:15;102161.13;;;8.57;100.00
61119;BME280;51448;51.660;5.824;2023-02-20T12:03:22;102164.66;;;8.57;100.00
61119;BME280;51448;51.660;5.824;2023-02-20T12:05:52;102144.53;;;8.55;100.00
61119;BME280;51448;51.660;5.824;2023-02-20T12:11:21;102147.16;;;8.61;100.00
61119;BME280;51448;51.660;5.824;2023-02-20T12:13:56;102148.91;;;8.60;100.00
61119;BME280;51448;51.660;5.824;2023-02-20T12:16:28;102162.03;;;8.62;100.00
61119;BME280;51448;51.660;5.824;2023-02-20T12:19:13;102154.16;;;8.65;100.00
61119;BME280;51448;51.660;5.824;2023-02-20T12:25:07;102107.81;;;8.69;100.00
61119;BME280;51448;51.660;5.824;2023-02-20T12:31:02;102106.94;;;8.77;100.00
61119;BME280;51448;51.660;5.824;2023-02-20T12:37:22;102085.09;;;8.84;100.00
61119;BME280;51448;51.660;5.824;2023-02-20T12:40:01;102086.81;;;8.85;100.00
61119;BME280;51448;51.660;5.824;2023-02-20T12:42:56;102093.81;;;8.90;100.00
61119;BME280;51448;51.660;5.824;2023-02-20T12:46:03;102080.72;;;8.93;100.00
61119;BME280;51448;51.660;5.824;2023-02-20T12:55:06;102097.31;;;8.92;100.00
61119;BME280;51448;51.660;5.824;2023-02-20T13:00:53;102120.06;;;8.99;100.00
61119;BME280;51448;51.660;5.824;2023-02-20T13:07:04;102077.19;;;8.95;100.00
61119;BME280;51448;51.660;5.824;2023-02-20T13:09:47;102105.22;;;8.96;100.00
61119;BME280;51448;51.660;5.824;2023-02-20T13:12:28;102113.06;;;8.96;100.00
61119;BME280;51448;51.660;5.824;2023-02-20T13:17:55;102121.81;;;9.03;100.00
61119;BME280;51448;51.660;5.824;2023-02-20T13:20:31;102120.03;;;9.02;100.00
61119;BME280;51448;51.660;5.824;2023-02-20T13:25:45;102072.81;;;9.05;100.00
61119;BME280;51448;51.660;5.824;2023-02-20T13:31:11;102083.31;;;9.06;100.00
61119;BME280;51448;51.660;5.824;2023-02-20T13:36:36;102086.78;;;9.10;100.00
61119;BME280;51448;51.660;5.824;2023-02-20T13:47:01;102079.81;;;9.11;100.00
61119;BME280;51448;51.660;5.824;2023-02-20T13:49:55;102073.66;;;9.10;100.00
61119;BME280;51448;51.660;5.824;2023-02-20T13:52:40;102084.16;;;9.12;100.00
61119;BME280;51448;51.660;5.824;2023-02-20T13:57:50;102070.19;;;9.10;100.00
61119;BME280;51448;51.660;5.824;2023-02-20T14:00:52;102060.56;;;9.07;100.00
61119;BME280;51448;51.660;5.824;2023-02-20T14:08:45;102039.56;;;9.05;100.00
61119;BME280;51448;51.660;5.824;2023-02-20T14:11:31;102042.19;;;9.05;100.00
61119;BME280;51448;51.660;5.824;2023-02-20T14:14:07;102037.84;;;9.04;100.00
61119;BME280;51448;51.660;5.824;2023-02-20T14:16:41;102020.34;;;9.05;100.00
61119;BME280;51448;51.660;5.824;2023-02-20T14:21:48;102023.81;;;9.07;100.00
61119;BME280;51448;51.660;5.824;2023-02-20T14:24:26;102012.44;;;9.10;100.00
61119;BME280;51448;51.660;5.824;2023-02-20T14:26:55;102016.81;;;9.09;100.00
61119;BME280;51448;51.660;5.824;2023-02-20T14:31:57;102020.28;;;9.14;100.00
61119;BME280;51448;51.660;5.824;2023-02-20T14:34:50;102031.66;;;9.16;100.00
61119;BME280;51448;51.660;5.824;2023-02-20T14:40:36;102022.91;;;9.16;100.00
61119;BME280;51448;51.660;5.824;2023-02-20T14:43:15;102018.53;;;9.16;100.00
61119;BME280;51448;51.660;5.824;2023-02-20T14:46:00;102022.03;;;9.18;100.00
61119;BME280;51448;51.660;5.824;2023-02-20T14:48:33;102029.03;;;9.16;100.00
61119;BME280;51448;51.660;5.824;2023-02-20T14:51:16;102022.94;;;9.19;100.00
61119;BME280;51448;51.660;5.824;2023-02-20T14:53:58;102036.03;;;9.20;100.00
61119;BME280;51448;51.660;5.824;2023-02-20T14:56:43;102033.41;;;9.17;100.00
61119;BME280;51448;51.660;5.824;2023-02-20T15:01:57;102027.28;;;9.18;100.00
61119;BME280;51448;51.660;5.824;2023-02-20T15:04:28;102018.53;;;9.16;100.00
61119;BME280;51448;51.660;5.824;2023-02-20T15:07:04;101998.44;;;9.15;100.00
61119;BME280;51448;51.660;5.824;2023-02-20T15:09:39;101989.69;;;9.13;100.00
61119;BME280;51448;51.660;5.824;2023-02-20T15:12:21;102002.81;;;9.13;100.00
61119;BME280;51448;51.660;5.824;2023-02-20T15:14:56;102006.31;;;9.06;100.00
61119;BME280;51448;51.660;5.824;2023-02-20T15:17:40;102000.19;;;9.05;100.00
61119;BME280;51448;51.660;5.824;2023-02-20T15:20:35;101990.56;;;9.06;100.00
61119;BME280;51448;51.660;5.824;2023-02-20T15:23:31;101993.19;;;9.06;100.00
61119;BME280;51448;51.660;5.824;2023-02-20T15:26:32;102000.22;;;9.07;100.00
61119;BME280;51448;51.660;5.824;2023-02-20T15:32:04;102008.06;;;9.07;100.00
61119;BME280;51448;51.660;5.824;2023-02-20T15:34:54;102007.22;;;9.05;100.00
61119;BME280;51448;51.660;5.824;2023-02-20T15:37:27;102015.09;;;9.06;100.00